Time;durP1;ratioP1;P1;durP2;ratioP2;P2;SDS_P1;SDS_P2;PMS_P1;PMS_P2;Temp;Humidity;BMP_temperature;BMP_pressure;BME280_temperature;BME280_humidity;BME280_pressure;Samples;Min_cycle;Max_cycle;Signal;HPM_P1;HPM_P2
2023/10/25 00:02:19;;;;;;;16.08;7.28;;;8.70;99.90;;;;;;4962958;28;20042;-69
2023/10/25 00:04:45;;;;;;;15.40;7.57;;;8.70;99.90;;;;;;4953901;28;20105;-68
2023/10/25 00:07:10;;;;;;;14.80;6.68;;;8.60;99.90;;;;;;4976634;28;20812;-70
2023/10/25 00:09:36;;;;;;;15.15;6.90;;;8.60;99.90;;;;;;4972491;28;20062;-69
2023/10/25 00:12:01;;;;;;;15.52;7.18;;;8.60;99.90;;;;;;4971010;28;20690;-68
2023/10/25 00:14:28;;;;;;;10.75;6.72;;;8.70;99.90;;;;;;4956831;28;20118;-67
2023/10/25 00:16:53;;;;;;;14.95;7.13;;;8.60;99.90;;;;;;4953897;28;20046;-68
2023/10/25 00:19:19;;;;;;;14.10;6.78;;;8.60;99.90;;;;;;4965940;28;20081;-68
2023/10/25 00:21:45;;;;;;;14.95;6.85;;;8.60;99.90;;;;;;4966006;28;20069;-67
2023/10/25 00:24:10;;;;;;;16.48;7.07;;;8.60;99.90;;;;;;4969020;28;20042;-69
2023/10/25 00:26:36;;;;;;;13.55;5.97;;;8.50;99.90;;;;;;4987051;28;20727;-69
2023/10/25 00:29:02;;;;;;;16.17;6.85;;;8.50;99.90;;;;;;4978668;28;20129;-67
2023/10/25 00:31:27;;;;;;;11.05;6.68;;;8.50;99.90;;;;;;4968153;28;20111;-68
2023/10/25 00:33:53;;;;;;;15.57;7.15;;;8.50;99.90;;;;;;4972730;28;20522;-72
2023/10/25 00:36:19;;;;;;;12.73;6.68;;;8.40;99.90;;;;;;4967831;28;20057;-67
2023/10/25 00:38:45;;;;;;;11.30;5.90;;;8.40;99.90;;;;;;4970362;28;20435;-68
2023/10/25 00:41:11;;;;;;;14.75;6.57;;;8.40;99.90;;;;;;4970132;28;20141;-69
2023/10/25 00:43:36;;;;;;;16.48;6.70;;;8.30;99.90;;;;;;4953066;28;20146;-68
2023/10/25 00:46:13;;;;;;;12.85;6.07;;;8.40;99.90;;;;;;4968743;28;20232;-67
2023/10/25 00:48:41;;;;;;;13.98;6.45;;;8.30;99.90;;;;;;4983981;28;20541;-68
2023/10/25 00:51:09;;;;;;;12.77;6.32;;;8.30;99.90;;;;;;4966272;28;20042;-68
2023/10/25 00:53:37;;;;;;;13.70;6.10;;;8.30;99.90;;;;;;4965516;28;20121;-67
2023/10/25 00:56:05;;;;;;;15.40;6.93;;;8.30;99.90;;;;;;4972871;28;20498;-68
2023/10/25 00:58:32;;;;;;;12.77;5.88;;;8.30;99.90;;;;;;4969323;28;20088;-68
2023/10/25 01:00:58;;;;;;;14.10;6.00;;;8.20;99.90;;;;;;4968561;28;21022;-68
2023/10/25 01:03:24;;;;;;;13.90;6.22;;;8.20;99.90;;;;;;4967690;28;20038;-69
2023/10/25 01:05:50;;;;;;;16.48;6.55;;;8.20;99.90;;;;;;4981608;28;20522;-68
2023/10/25 01:08:20;;;;;;;17.77;6.47;;;8.30;99.90;;;;;;4966997;28;20124;-68
2023/10/25 01:10:50;;;;;;;11.65;6.30;;;8.20;99.90;;;;;;4975179;28;20050;-67
2023/10/25 01:13:17;;;;;;;12.40;6.50;;;8.20;99.90;;;;;;4967547;28;20046;-68
2023/10/25 01:15:43;;;;;;;12.63;5.78;;;8.20;99.90;;;;;;4966928;28;20089;-69
2023/10/25 01:18:09;;;;;;;12.43;6.28;;;8.10;99.90;;;;;;4977457;28;20626;-68
2023/10/25 01:20:36;;;;;;;12.77;5.85;;;8.20;99.90;;;;;;4971311;28;20047;-68
2023/10/25 01:23:02;;;;;;;11.70;5.88;;;8.10;99.90;;;;;;4970783;28;20035;-68
2023/10/25 01:25:27;;;;;;;14.38;5.88;;;8.10;99.90;;;;;;4977624;28;20046;-67
2023/10/25 01:27:53;;;;;;;12.63;6.22;;;8.10;99.90;;;;;;4966663;28;20042;-68
2023/10/25 01:30:18;;;;;;;15.15;6.10;;;8.10;99.90;;;;;;4971755;28;20038;-68
2023/10/25 01:32:44;;;;;;;16.95;6.72;;;8.10;99.90;;;;;;4965256;28;20513;-68
2023/10/25 01:35:12;;;;;;;14.68;6.38;;;8.10;99.90;;;;;;4965559;28;20038;-68
2023/10/25 01:37:39;;;;;;;12.07;5.75;;;8.10;99.90;;;;;;4975243;28;20074;-68
2023/10/25 01:40:06;;;;;;;13.57;6.32;;;8.10;99.90;;;;;;4962930;28;20061;-69
2023/10/25 01:42:32;;;;;;;15.55;6.72;;;8.10;99.90;;;;;;4958059;28;20038;-67
2023/10/25 01:44:57;;;;;;;13.23;6.45;;;8.10;99.90;;;;;;4971195;28;20034;-66
2023/10/25 01:47:23;;;;;;;11.82;6.43;;;8.10;99.90;;;;;;4965429;28;20045;-67
2023/10/25 01:49:48;;;;;;;13.15;5.88;;;8.10;99.90;;;;;;4971162;28;20504;-68
2023/10/25 01:52:14;;;;;;;12.75;6.70;;;8.10;99.90;;;;;;4972665;28;20077;-69
2023/10/25 01:54:40;;;;;;;14.55;6.65;;;8.00;99.90;;;;;;4968703;28;20085;-67
2023/10/25 01:57:06;;;;;;;13.73;6.28;;;8.00;99.90;;;;;;4972654;28;20119;-68
2023/10/25 01:59:32;;;;;;;15.57;7.03;;;8.00;99.90;;;;;;4972423;28;20034;-68
2023/10/25 02:01:58;;;;;;;14.38;6.55;;;8.00;99.90;;;;;;4952308;28;20431;-69
2023/10/25 02:04:23;;;;;;;12.55;6.78;;;8.00;99.90;;;;;;4966452;28;20061;-68
2023/10/25 02:06:51;;;;;;;15.57;7.07;;;8.00;99.90;;;;;;4969151;28;20050;-70
2023/10/25 02:09:18;;;;;;;19.55;7.72;;;8.00;99.90;;;;;;4969396;28;20034;-67
2023/10/25 02:11:43;;;;;;;16.60;6.90;;;7.90;99.90;;;;;;4979882;28;20403;-67
2023/10/25 02:14:09;;;;;;;12.55;7.30;;;8.00;99.90;;;;;;4960103;28;20056;-68
2023/10/25 02:16:34;;;;;;;17.90;7.35;;;7.90;99.90;;;;;;4967294;28;20039;-69
2023/10/25 02:19:00;;;;;;;19.55;8.07;;;7.90;99.90;;;;;;4968735;28;20665;-68
2023/10/25 02:21:26;;;;;;;20.35;9.23;;;7.90;99.90;;;;;;4961573;28;20058;-68
2023/10/25 02:23:53;;;;;;;19.10;8.05;;;7.90;99.90;;;;;;4966926;28;20057;-68
2023/10/25 02:26:19;;;;;;;15.15;8.25;;;7.90;99.90;;;;;;4989457;28;20463;-68
2023/10/25 02:28:45;;;;;;;19.65;9.40;;;7.90;99.90;;;;;;4983063;28;20336;-68
2023/10/25 02:31:10;;;;;;;17.00;9.25;;;7.90;99.90;;;;;;4968773;28;20711;-68
2023/10/25 02:33:37;;;;;;;23.30;9.05;;;7.90;99.90;;;;;;4972061;28;20042;-66
2023/10/25 02:36:03;;;;;;;19.98;8.85;;;7.90;99.90;;;;;;4971035;28;20050;-68
2023/10/25 02:38:28;;;;;;;22.80;9.52;;;7.90;99.90;;;;;;4972891;28;20065;-68
2023/10/25 02:40:54;;;;;;;19.38;9.10;;;7.90;99.90;;;;;;4989031;28;20061;-68
2023/10/25 02:43:19;;;;;;;16.35;8.38;;;7.90;99.90;;;;;;4980795;28;20038;-69
2023/10/25 02:45:45;;;;;;;19.48;8.93;;;7.90;99.90;;;;;;4970631;28;20046;-68
2023/10/25 02:48:13;;;;;;;18.42;8.80;;;7.80;99.90;;;;;;4973198;28;20047;-67
2023/10/25 02:50:40;;;;;;;14.30;8.63;;;7.80;99.90;;;;;;4970964;28;20042;-68
2023/10/25 02:53:06;;;;;;;18.92;9.85;;;7.80;99.90;;;;;;4978700;28;20038;-68
2023/10/25 02:55:33;;;;;;;19.42;8.30;;;7.80;99.90;;;;;;4980882;28;20124;-68
2023/10/25 02:57:59;;;;;;;19.55;9.35;;;7.80;99.90;;;;;;4972007;28;20394;-68
2023/10/25 03:00:24;;;;;;;17.65;8.25;;;7.80;99.90;;;;;;4980960;28;20137;-67
2023/10/25 03:02:50;;;;;;;17.05;8.70;;;7.80;99.90;;;;;;4969655;28;20041;-68
2023/10/25 03:05:16;;;;;;;16.17;8.82;;;7.80;99.90;;;;;;4954206;28;20038;-67
2023/10/25 03:07:41;;;;;;;16.35;8.25;;;7.90;99.90;;;;;;4987740;28;20112;-68
2023/10/25 03:10:07;;;;;;;20.02;8.90;;;7.80;99.90;;;;;;4972884;28;20039;-68
2023/10/25 03:12:33;;;;;;;20.50;8.50;;;7.80;99.90;;;;;;4966871;28;20549;-68
2023/10/25 03:14:59;;;;;;;19.55;9.27;;;7.80;99.90;;;;;;4976215;28;20116;-66
2023/10/25 03:17:27;;;;;;;19.08;8.30;;;7.80;99.90;;;;;;4969176;28;20065;-68
2023/10/25 03:19:53;;;;;;;17.67;8.68;;;7.70;99.90;;;;;;4955990;28;20061;-68
2023/10/25 03:22:18;;;;;;;14.27;7.95;;;7.70;99.90;;;;;;4982906;28;20034;-66
2023/10/25 03:24:44;;;;;;;14.43;7.95;;;7.80;99.90;;;;;;4973707;28;20084;-68
2023/10/25 03:27:11;;;;;;;18.70;9.30;;;7.80;99.90;;;;;;4989868;28;20161;-68
2023/10/25 03:29:37;;;;;;;16.63;8.30;;;7.70;99.90;;;;;;4988998;28;20133;-68
2023/10/25 03:32:03;;;;;;;12.48;7.63;;;7.70;99.90;;;;;;4953592;28;20042;-68
2023/10/25 03:34:29;;;;;;;16.60;7.97;;;7.70;99.90;;;;;;4997864;28;20130;-68
2023/10/25 03:36:55;;;;;;;15.55;8.55;;;7.70;99.90;;;;;;4968430;28;20055;-68
2023/10/25 03:39:21;;;;;;;18.20;8.30;;;7.70;99.90;;;;;;4987154;28;20041;-69
2023/10/25 03:41:46;;;;;;;16.80;8.48;;;7.70;99.90;;;;;;4958084;28;20097;-67
2023/10/25 03:44:12;;;;;;;15.85;8.55;;;7.70;99.90;;;;;;4970542;28;20440;-68
2023/10/25 03:46:38;;;;;;;20.52;8.77;;;7.70;99.90;;;;;;4971615;28;20454;-68
2023/10/25 03:49:04;;;;;;;17.35;8.57;;;7.70;99.90;;;;;;4983865;28;20149;-69
2023/10/25 03:51:31;;;;;;;26.33;9.57;;;7.60;99.90;;;;;;4984525;28;20082;-67
2023/10/25 03:53:57;;;;;;;16.75;8.40;;;7.60;99.90;;;;;;4970998;28;20041;-68
2023/10/25 03:56:22;;;;;;;16.40;8.73;;;7.60;99.90;;;;;;4976516;28;20038;-68
2023/10/25 03:58:48;;;;;;;18.27;8.88;;;7.60;99.90;;;;;;4969742;28;20038;-68
2023/10/25 04:01:14;;;;;;;18.30;8.18;;;7.60;99.90;;;;;;4972343;28;20053;-69
2023/10/25 04:03:39;;;;;;;17.13;8.40;;;7.60;99.90;;;;;;4968009;28;20042;-68
2023/10/25 04:06:07;;;;;;;17.75;8.90;;;7.50;99.90;;;;;;4985181;28;20447;-68
2023/10/25 04:08:33;;;;;;;14.63;8.95;;;7.50;99.90;;;;;;4971297;28;20093;-68
2023/10/25 04:10:58;;;;;;;21.13;9.43;;;7.60;99.90;;;;;;4970004;28;20153;-69
2023/10/25 04:13:25;;;;;;;16.80;9.02;;;7.60;99.90;;;;;;4970059;28;20141;-68
2023/10/25 04:15:55;;;;;;;20.17;9.25;;;7.60;99.90;;;;;;4975842;28;20082;-68
2023/10/25 04:18:21;;;;;;;16.40;8.55;;;7.60;99.90;;;;;;4977626;28;20100;-67
2023/10/25 04:20:47;;;;;;;16.63;8.63;;;7.50;99.90;;;;;;4969418;28;20055;-67
2023/10/25 04:23:12;;;;;;;17.67;8.73;;;7.50;99.90;;;;;;4988070;28;20052;-69
2023/10/25 04:25:38;;;;;;;14.00;8.50;;;7.50;99.90;;;;;;4970295;28;20397;-68
2023/10/25 04:28:04;;;;;;;19.08;9.13;;;7.50;99.90;;;;;;4967221;28;20059;-68
2023/10/25 04:30:31;;;;;;;16.33;8.75;;;7.50;99.90;;;;;;4972408;28;20434;-68
2023/10/25 04:32:57;;;;;;;19.35;8.68;;;7.50;99.90;;;;;;4956254;28;20476;-68
2023/10/25 04:35:22;;;;;;;17.48;8.60;;;7.50;99.90;;;;;;4967556;28;20038;-68
2023/10/25 04:37:48;;;;;;;19.33;8.85;;;7.40;99.90;;;;;;4983715;28;20069;-68
2023/10/25 04:40:14;;;;;;;17.25;8.70;;;7.40;99.90;;;;;;4980792;28;20514;-68
2023/10/25 04:42:39;;;;;;;17.55;8.82;;;7.40;99.90;;;;;;4966970;28;20250;-70
2023/10/25 04:45:05;;;;;;;19.38;9.30;;;7.30;99.90;;;;;;4970437;28;20561;-68
2023/10/25 04:47:31;;;;;;;13.82;8.43;;;7.40;99.90;;;;;;4964426;28;20101;-68
2023/10/25 04:50:01;;;;;;;14.10;7.85;;;7.40;99.90;;;;;;4969073;28;20050;-69
2023/10/25 04:52:26;;;;;;;17.67;8.38;;;7.40;99.90;;;;;;4968098;28;20088;-68
2023/10/25 04:54:52;;;;;;;15.27;8.90;;;7.40;99.90;;;;;;4985351;28;20070;-68
2023/10/25 04:57:18;;;;;;;16.30;8.90;;;7.40;99.90;;;;;;4970235;28;20069;-68
2023/10/25 04:59:43;;;;;;;17.58;8.30;;;7.40;99.90;;;;;;4970254;28;20048;-67
2023/10/25 05:02:09;;;;;;;15.23;8.52;;;7.30;99.90;;;;;;4970086;28;20534;-66
2023/10/25 05:04:34;;;;;;;15.48;8.07;;;7.30;99.90;;;;;;4967437;28;20498;-68
2023/10/25 05:07:00;;;;;;;18.38;9.48;;;7.20;99.90;;;;;;4969767;28;20409;-67
2023/10/25 05:09:26;;;;;;;15.48;8.43;;;7.20;99.90;;;;;;4971980;28;20038;-67
2023/10/25 05:11:58;;;;;;;15.43;8.82;;;7.30;99.90;;;;;;4968933;28;20130;-67
2023/10/25 05:14:24;;;;;;;19.95;8.07;;;7.20;99.90;;;;;;4961968;28;20034;-68
2023/10/25 05:16:50;;;;;;;16.67;8.10;;;7.20;99.90;;;;;;4956260;28;20355;-68
2023/10/25 05:19:16;;;;;;;14.60;7.55;;;7.20;99.90;;;;;;4975584;28;20328;-68
2023/10/25 05:21:46;;;;;;;19.02;7.75;;;7.20;99.90;;;;;;4967929;28;20054;-69
2023/10/25 05:24:12;;;;;;;16.45;8.10;;;7.10;99.90;;;;;;4990568;28;20034;-68
2023/10/25 05:26:38;;;;;;;14.90;8.27;;;7.20;99.90;;;;;;4981436;28;20052;-68
2023/10/25 05:29:04;;;;;;;14.65;7.90;;;7.20;99.90;;;;;;4968500;28;20046;-68
2023/10/25 05:31:33;;;;;;;13.15;7.55;;;7.10;99.90;;;;;;4952755;28;20048;-68
2023/10/25 05:33:58;;;;;;;17.80;7.50;;;7.10;99.90;;;;;;4965542;28;20050;-67
2023/10/25 05:36:24;;;;;;;19.95;8.18;;;7.10;99.90;;;;;;4966227;28;20052;-68
2023/10/25 05:38:50;;;;;;;16.67;8.05;;;7.10;99.90;;;;;;4967637;28;20172;-67
2023/10/25 05:41:21;;;;;;;15.65;7.82;;;7.10;99.90;;;;;;4962290;28;20149;-67
2023/10/25 05:44:02;;;;;;;21.40;8.50;;;7.20;99.90;;;;;;4971611;28;20038;-68
2023/10/25 05:46:28;;;;;;;17.33;8.88;;;7.20;99.90;;;;;;4969398;28;20034;-67
2023/10/25 05:48:54;;;;;;;14.82;7.80;;;7.10;99.90;;;;;;4965201;28;20110;-68
2023/10/25 05:51:20;;;;;;;16.33;8.07;;;7.10;99.90;;;;;;4970136;28;20115;-67
2023/10/25 05:53:47;;;;;;;17.33;8.57;;;7.10;99.90;;;;;;4972271;28;20078;-68
2023/10/25 05:56:13;;;;;;;16.05;7.50;;;7.10;99.90;;;;;;4965845;28;20414;-67
2023/10/25 05:58:39;;;;;;;18.83;8.73;;;7.20;99.90;;;;;;4962415;28;20074;-67
2023/10/25 06:01:08;;;;;;;15.80;8.00;;;7.20;99.90;;;;;;4985205;28;20091;-68
2023/10/25 06:03:35;;;;;;;15.35;7.65;;;7.20;99.90;;;;;;4966860;28;20042;-67
2023/10/25 06:06:01;;;;;;;12.35;7.78;;;7.20;99.90;;;;;;4970670;28;20108;-71
2023/10/25 06:08:30;;;;;;;16.13;8.02;;;7.10;99.90;;;;;;4965422;28;20408;-67
2023/10/25 06:10:56;;;;;;;21.73;8.88;;;7.10;99.90;;;;;;4970225;28;20451;-68
2023/10/25 06:13:22;;;;;;;17.70;8.38;;;7.10;99.90;;;;;;4970962;28;20046;-68
2023/10/25 06:15:48;;;;;;;15.45;7.80;;;7.10;99.90;;;;;;4967899;28;20136;-69
2023/10/25 06:18:13;;;;;;;21.23;8.65;;;7.00;99.90;;;;;;4965703;28;20278;-68
2023/10/25 06:20:39;;;;;;;16.00;7.63;;;7.00;99.90;;;;;;4968692;28;20451;-68
2023/10/25 06:23:05;;;;;;;17.15;8.73;;;6.90;99.90;;;;;;4965854;28;20053;-68
2023/10/25 06:25:31;;;;;;;17.48;8.10;;;6.90;99.90;;;;;;4969606;28;20046;-68
2023/10/25 06:27:57;;;;;;;18.35;8.70;;;7.00;99.90;;;;;;4970289;28;20053;-68
2023/10/25 06:30:23;;;;;;;14.23;7.68;;;6.90;99.90;;;;;;4968773;28;20134;-68
2023/10/25 06:32:49;;;;;;;17.80;8.77;;;6.90;99.90;;;;;;4965057;28;20132;-68
2023/10/25 06:35:15;;;;;;;17.88;9.10;;;7.00;99.90;;;;;;4968235;28;20152;-68
2023/10/25 06:37:40;;;;;;;22.58;8.98;;;6.90;99.90;;;;;;4964995;28;20070;-69
2023/10/25 06:40:07;;;;;;;17.98;9.38;;;6.90;99.90;;;;;;4976729;28;20129;-67
2023/10/25 06:42:32;;;;;;;15.88;8.57;;;6.90;99.90;;;;;;4968921;28;20061;-67
2023/10/25 06:44:58;;;;;;;18.00;8.57;;;6.90;99.90;;;;;;4969661;28;20034;-68
2023/10/25 06:47:26;;;;;;;17.98;8.82;;;7.00;99.90;;;;;;4967280;28;20057;-69
2023/10/25 06:49:52;;;;;;;15.70;8.57;;;7.00;99.90;;;;;;4963966;28;20057;-68
2023/10/25 06:52:18;;;;;;;16.17;8.23;;;7.00;99.90;;;;;;4972486;28;20049;-68
2023/10/25 06:54:44;;;;;;;15.18;8.35;;;7.00;99.90;;;;;;4975383;28;20038;-68
2023/10/25 06:57:10;;;;;;;15.07;7.97;;;7.00;99.90;;;;;;4986122;28;20121;-67
2023/10/25 06:59:37;;;;;;;15.85;8.98;;;7.00;99.90;;;;;;4967267;28;20206;-68
2023/10/25 07:02:28;;;;;;;21.35;8.45;;;7.10;99.90;;;;;;4968931;28;20042;-69
2023/10/25 07:05:08;;;;;;;14.50;8.63;;;7.10;99.90;;;;;;4966333;28;20494;-71
2023/10/25 07:07:35;;;;;;;20.25;8.55;;;7.10;99.90;;;;;;4965134;28;20101;-69
2023/10/25 07:10:01;;;;;;;15.48;8.30;;;7.20;99.90;;;;;;4967311;28;20038;-69
2023/10/25 07:12:26;;;;;;;18.48;8.82;;;7.10;99.90;;;;;;4989899;28;20044;-69
2023/10/25 07:14:52;;;;;;;17.88;8.25;;;7.10;99.90;;;;;;4971058;28;20469;-68
2023/10/25 07:17:17;;;;;;;18.50;8.27;;;7.20;99.90;;;;;;4969312;28;20069;-69
2023/10/25 07:19:46;;;;;;;12.65;8.38;;;7.10;99.90;;;;;;4973766;28;20051;-68
2023/10/25 07:22:11;;;;;;;14.73;7.82;;;7.10;99.90;;;;;;4976770;28;20168;-68
2023/10/25 07:24:37;;;;;;;14.13;8.00;;;7.10;99.90;;;;;;4978583;28;20074;-69
2023/10/25 07:27:02;;;;;;;15.48;8.40;;;7.10;99.90;;;;;;4971400;28;20034;-68
2023/10/25 07:29:28;;;;;;;16.13;8.05;;;7.10;99.90;;;;;;4975586;28;20096;-68
2023/10/25 07:31:53;;;;;;;18.67;7.88;;;7.20;99.90;;;;;;4962886;28;20470;-69
2023/10/25 07:34:20;;;;;;;12.80;7.97;;;7.20;99.90;;;;;;4970643;28;20427;-68
2023/10/25 07:36:45;;;;;;;22.45;9.25;;;7.20;99.90;;;;;;4970530;28;20521;-69
2023/10/25 07:39:15;;;;;;;15.13;7.43;;;7.20;99.90;;;;;;4972367;28;20050;-69
2023/10/25 07:41:41;;;;;;;13.13;7.20;;;7.20;99.90;;;;;;4989747;28;20427;-69
2023/10/25 07:44:06;;;;;;;15.20;7.40;;;7.20;99.90;;;;;;4973123;28;20048;-68
2023/10/25 07:46:32;;;;;;;17.67;8.85;;;7.30;99.90;;;;;;4959948;28;20051;-70
2023/10/25 07:48:57;;;;;;;18.02;8.85;;;7.30;99.90;;;;;;4972538;28;20367;-67
2023/10/25 07:51:23;;;;;;;17.20;8.00;;;7.30;99.90;;;;;;4989653;28;20080;-69
2023/10/25 07:53:49;;;;;;;11.95;7.75;;;7.40;99.90;;;;;;4974273;28;20455;-68
2023/10/25 07:56:14;;;;;;;19.25;8.43;;;7.40;99.90;;;;;;4973482;28;20066;-68
2023/10/25 07:58:40;;;;;;;16.38;8.70;;;7.50;99.90;;;;;;4970877;28;20093;-69
2023/10/25 08:01:06;;;;;;;14.57;8.48;;;7.50;99.90;;;;;;4976085;28;20443;-68
2023/10/25 08:03:31;;;;;;;16.55;8.70;;;7.60;99.90;;;;;;4968665;28;20038;-69
2023/10/25 08:05:57;;;;;;;17.33;8.63;;;7.60;99.90;;;;;;4957450;28;20446;-68
2023/10/25 08:08:22;;;;;;;15.68;8.63;;;7.70;99.90;;;;;;4983272;28;20061;-67
2023/10/25 08:10:48;;;;;;;15.65;8.48;;;7.70;99.90;;;;;;4973056;28;20093;-69
2023/10/25 08:13:14;;;;;;;14.13;8.05;;;7.80;99.90;;;;;;4972534;28;20065;-68
2023/10/25 08:15:39;;;;;;;15.00;8.23;;;7.80;99.90;;;;;;4975530;28;20046;-69
2023/10/25 08:18:05;;;;;;;14.65;8.70;;;7.90;99.90;;;;;;4970514;28;20112;-68
2023/10/25 08:20:35;;;;;;;20.48;8.60;;;8.00;99.90;;;;;;4983433;28;20078;-68
2023/10/25 08:23:01;;;;;;;;;;;8.00;99.90;;;;;;4974907;28;20038;-69
2023/10/25 08:25:26;;;;;;;13.27;8.52;;;8.10;99.90;;;;;;4987728;28;19917;-69
2023/10/25 08:27:52;;;;;;;16.75;9.52;;;8.10;99.90;;;;;;4973588;28;20082;-69
2023/10/25 08:30:20;;;;;;;17.63;8.73;;;8.20;99.90;;;;;;4957617;28;20370;-68
2023/10/25 08:32:46;;;;;;;17.58;9.70;;;8.30;99.90;;;;;;4968969;28;20050;-69
2023/10/25 08:35:12;;;;;;;17.02;9.48;;;8.30;99.90;;;;;;4978503;28;20053;-68
2023/10/25 08:37:37;;;;;;;21.95;9.93;;;8.30;99.90;;;;;;5004945;28;20046;-69
2023/10/25 08:40:03;;;;;;;18.85;10.18;;;8.40;99.90;;;;;;4978369;28;20053;-69
2023/10/25 08:42:29;;;;;;;19.40;10.13;;;8.40;99.90;;;;;;4969246;28;20038;-69
2023/10/25 08:44:55;;;;;;;26.70;11.25;;;8.40;99.90;;;;;;4971603;28;20435;-68
2023/10/25 08:47:20;;;;;;;18.88;10.32;;;8.50;99.90;;;;;;4986017;28;20042;-68
2023/10/25 08:49:46;;;;;;;18.98;11.00;;;8.50;99.90;;;;;;4985878;28;20053;-68
2023/10/25 08:52:11;;;;;;;19.95;10.95;;;8.60;99.90;;;;;;4971186;28;20049;-69
2023/10/25 08:54:37;;;;;;;16.50;10.55;;;8.60;99.90;;;;;;4973884;28;20129;-69
2023/10/25 08:57:07;;;;;;;23.52;10.93;;;8.60;99.90;;;;;;4971912;28;20053;-69
2023/10/25 08:59:43;;;;;;;20.60;10.50;;;8.70;99.90;;;;;;4972529;28;20169;-68
2023/10/25 09:02:11;;;;;;;18.50;10.60;;;8.80;99.90;;;;;;4971114;28;20133;-68
2023/10/25 09:04:37;;;;;;;21.73;11.75;;;8.80;99.90;;;;;;4970845;28;20054;-69
2023/10/25 09:07:17;;;;;;;21.50;11.85;;;8.90;99.90;;;;;;4968913;28;20034;-70
2023/10/25 09:09:45;;;;;;;;;;;8.90;99.90;;;;;;4970726;28;20046;-69
2023/10/25 09:12:19;;;;;;;18.33;10.68;;;9.00;99.90;;;;;;4969827;28;19921;-69
2023/10/25 09:14:46;;;;;;;19.13;11.18;;;9.10;99.90;;;;;;4964732;28;20200;-69
2023/10/25 09:17:12;;;;;;;19.95;10.48;;;9.20;99.90;;;;;;4954530;28;20501;-69
2023/10/25 09:19:42;;;;;;;16.95;10.32;;;9.20;99.90;;;;;;4965395;28;20069;-69
2023/10/25 09:22:29;;;;;;;18.98;10.57;;;9.30;99.90;;;;;;4987048;28;20129;-69
2023/10/25 09:24:59;;;;;;;17.48;10.55;;;9.40;99.90;;;;;;4986589;28;20388;-71
2023/10/25 09:27:25;;;;;;;19.25;11.10;;;9.40;99.90;;;;;;4964702;28;20048;-68
2023/10/25 09:29:51;;;;;;;20.92;10.43;;;9.60;99.90;;;;;;4966639;28;20065;-69
2023/10/25 09:32:19;;;;;;;22.05;11.70;;;9.70;99.90;;;;;;4953714;28;20543;-72
2023/10/25 09:34:48;;;;;;;18.95;11.73;;;9.90;99.90;;;;;;4963230;28;20081;-71
2023/10/25 09:37:14;;;;;;;14.90;10.10;;;10.00;99.90;;;;;;4967581;28;20587;-70
2023/10/25 09:39:41;;;;;;;19.15;10.15;;;10.20;99.90;;;;;;4959341;28;20038;-69
2023/10/25 09:42:12;;;;;;;22.10;11.00;;;10.30;99.90;;;;;;4954500;28;20070;-68
2023/10/25 09:44:50;;;;;;;15.10;9.88;;;10.50;99.90;;;;;;4955125;28;20034;-69
2023/10/25 09:47:18;;;;;;;20.38;10.45;;;10.60;99.90;;;;;;4969910;28;20057;-69
2023/10/25 09:49:48;;;;;;;16.05;9.60;;;10.80;99.90;;;;;;4966840;28;20075;-68
2023/10/25 09:52:28;;;;;;;16.92;9.02;;;10.90;99.90;;;;;;4986433;28;20042;-68
2023/10/25 09:55:04;;;;;;;15.07;9.30;;;11.00;99.90;;;;;;4971181;28;20471;-70
2023/10/25 09:57:32;;;;;;;13.98;8.00;;;11.10;99.90;;;;;;4967697;28;20054;-72
2023/10/25 10:00:00;;;;;;;12.73;7.88;;;11.10;99.90;;;;;;4987967;28;20061;-71
2023/10/25 10:02:54;;;;;;;12.85;6.97;;;11.10;99.90;;;;;;4985990;28;20598;-69
2023/10/25 10:05:34;;;;;;;12.27;7.03;;;11.10;99.90;;;;;;4969672;28;20061;-70
2023/10/25 10:08:20;;;;;;;12.82;7.80;;;11.10;99.90;;;;;;4957649;28;20118;-69
2023/10/25 10:10:55;;;;;;;11.10;6.57;;;11.20;99.90;;;;;;4975136;28;20065;-70
2023/10/25 10:13:20;;;;;;;14.93;7.20;;;11.30;99.90;;;;;;4969385;28;20504;-70
2023/10/25 10:16:11;;;;;;;10.15;7.00;;;11.40;99.90;;;;;;4946464;28;20034;-71
2023/10/25 10:18:38;;;;;;;12.32;7.53;;;11.40;99.90;;;;;;4968155;28;20045;-71
2023/10/25 10:21:09;;;;;;;13.98;7.43;;;11.50;99.90;;;;;;4984172;28;20236;-70
2023/10/25 10:23:51;;;;;;;12.38;7.20;;;11.50;99.90;;;;;;4964899;28;20146;-69
2023/10/25 10:26:47;;;;;;;16.00;7.40;;;11.50;99.90;;;;;;4971201;28;20486;-70
2023/10/25 10:29:31;;;;;;;11.52;6.63;;;11.50;99.90;;;;;;4940567;28;20061;-70
2023/10/25 10:32:04;;;;;;;14.00;7.30;;;11.50;99.90;;;;;;4963049;28;20034;-69
2023/10/25 10:34:41;;;;;;;9.90;6.55;;;11.50;99.90;;;;;;4975781;28;20034;-68
2023/10/25 10:37:16;;;;;;;9.85;6.22;;;11.50;99.90;;;;;;4964878;28;20056;-69
2023/10/25 10:40:03;;;;;;;9.95;6.07;;;11.50;99.90;;;;;;4970552;28;20125;-69
2023/10/25 10:42:29;;;;;;;11.25;6.50;;;11.40;99.90;;;;;;4965763;28;20133;-68
2023/10/25 10:44:59;;;;;;;11.40;6.03;;;11.40;99.90;;;;;;4976272;28;20224;-68
2023/10/25 10:47:38;;;;;;;11.13;6.80;;;11.40;99.90;;;;;;4964283;28;20176;-69
2023/10/25 10:50:16;;;;;;;8.80;5.85;;;11.40;99.90;;;;;;4987019;28;20038;-69
2023/10/25 10:52:43;;;;;;;9.82;5.60;;;11.40;99.90;;;;;;4953903;28;20038;-68
2023/10/25 10:55:16;;;;;;;8.73;5.93;;;11.50;99.90;;;;;;4938359;28;20061;-68
2023/10/25 10:57:41;;;;;;;9.68;5.70;;;11.50;99.90;;;;;;4970630;28;20495;-69
2023/10/25 11:00:10;;;;;;;13.30;6.45;;;11.50;99.90;;;;;;4964883;28;20042;-68
2023/10/25 11:02:39;;;;;;;13.32;6.07;;;11.50;99.90;;;;;;4982385;28;20030;-70
2023/10/25 11:05:06;;;;;;;9.85;4.88;;;11.50;99.90;;;;;;4992790;28;20378;-68
2023/10/25 11:07:32;;;;;;;12.30;5.35;;;11.50;99.90;;;;;;4952516;28;20794;-69
2023/10/25 11:09:58;;;;;;;9.98;5.20;;;11.50;99.90;;;;;;4977159;28;20161;-68
2023/10/25 11:12:24;;;;;;;8.55;5.45;;;11.60;99.90;;;;;;4974898;28;20521;-68
2023/10/25 11:14:49;;;;;;;10.05;5.38;;;11.60;99.90;;;;;;4955716;28;20042;-68
2023/10/25 11:17:16;;;;;;;10.23;5.15;;;11.60;99.90;;;;;;4967296;28;20049;-69
2023/10/25 11:19:46;;;;;;;9.18;5.53;;;11.60;99.90;;;;;;4971548;28;20089;-68
2023/10/25 11:22:13;;;;;;;14.73;5.68;;;11.70;99.90;;;;;;4967332;28;20042;-67
2023/10/25 11:24:39;;;;;;;9.73;5.13;;;11.70;99.90;;;;;;4988848;28;20439;-68
2023/10/25 11:27:05;;;;;;;10.93;5.57;;;11.70;99.90;;;;;;4978669;28;20069;-68
2023/10/25 11:29:31;;;;;;;10.00;5.65;;;11.80;99.90;;;;;;4986207;28;20119;-67
2023/10/25 11:32:01;;;;;;;8.73;4.93;;;11.80;99.90;;;;;;4967399;28;20603;-69
2023/10/25 11:34:33;;;;;;;13.20;5.50;;;11.80;99.90;;;;;;4973907;28;20034;-68
2023/10/25 11:37:02;;;;;;;10.45;5.10;;;11.90;99.90;;;;;;4970522;28;20133;-69
2023/10/25 11:39:34;;;;;;;11.27;5.20;;;11.80;99.90;;;;;;4965856;28;20058;-67
2023/10/25 11:42:00;;;;;;;10.30;5.22;;;11.90;99.90;;;;;;4971243;28;20121;-68
2023/10/25 11:44:27;;;;;;;9.68;5.03;;;11.90;99.90;;;;;;4973882;28;20109;-68
2023/10/25 11:46:58;;;;;;;7.95;5.43;;;11.90;99.90;;;;;;4973967;28;20038;-69
2023/10/25 11:49:24;;;;;;;8.93;5.05;;;11.80;99.90;;;;;;4969064;28;20146;-68
2023/10/25 11:51:53;;;;;;;7.30;4.53;;;11.80;99.90;;;;;;4973821;28;20045;-71
2023/10/25 11:54:19;;;;;;;7.45;4.78;;;11.80;99.90;;;;;;4973621;28;20042;-69
2023/10/25 11:56:44;;;;;;;10.02;4.88;;;11.80;99.90;;;;;;4957395;28;20058;-68
2023/10/25 11:59:10;;;;;;;6.25;4.00;;;11.70;99.90;;;;;;4962502;28;20038;-67
2023/10/25 12:01:35;;;;;;;8.85;4.05;;;11.70;99.90;;;;;;4973356;28;20124;-68
2023/10/25 12:04:02;;;;;;;10.25;4.60;;;11.60;99.90;;;;;;4955264;28;20043;-67
2023/10/25 12:06:27;;;;;;;11.65;4.25;;;11.60;99.90;;;;;;4972369;28;20042;-67
2023/10/25 12:08:53;;;;;;;8.05;3.75;;;11.60;99.90;;;;;;4986546;28;20052;-68
2023/10/25 12:11:18;;;;;;;5.75;3.90;;;11.50;99.90;;;;;;4955015;28;20093;-68
2023/10/25 12:13:44;;;;;;;8.98;3.95;;;11.60;99.90;;;;;;4973934;28;20082;-67
2023/10/25 12:16:10;;;;;;;8.10;3.90;;;11.50;99.90;;;;;;4970567;28;20049;-67
2023/10/25 12:18:37;;;;;;;6.93;4.05;;;11.50;99.90;;;;;;4969702;28;20164;-67
2023/10/25 12:21:03;;;;;;;6.97;3.55;;;11.50;99.90;;;;;;4974492;28;20157;-68
2023/10/25 12:23:30;;;;;;;7.93;4.10;;;11.50;99.90;;;;;;4972271;28;20046;-68
2023/10/25 12:25:55;;;;;;;5.30;3.83;;;11.50;99.90;;;;;;4977302;28;20034;-69
2023/10/25 12:28:21;;;;;;;6.90;3.95;;;11.50;99.90;;;;;;4984202;28;20470;-68
2023/10/25 12:30:47;;;;;;;7.15;4.30;;;11.50;99.90;;;;;;4970054;28;20077;-69
2023/10/25 12:33:12;;;;;;;7.10;3.53;;;11.50;99.90;;;;;;4972220;28;20454;-69
2023/10/25 12:35:38;;;;;;;8.40;4.50;;;11.50;99.90;;;;;;4982863;28;20038;-69
2023/10/25 12:38:04;;;;;;;9.30;4.40;;;11.50;99.90;;;;;;4977072;28;20046;-68
2023/10/25 12:40:30;;;;;;;8.90;4.30;;;11.40;99.90;;;;;;4958844;28;20387;-68
2023/10/25 12:42:55;;;;;;;10.80;4.60;;;11.40;99.90;;;;;;4972517;28;20049;-66
2023/10/25 12:45:21;;;;;;;10.63;4.10;;;11.30;99.90;;;;;;4969583;28;20074;-67
2023/10/25 12:47:46;;;;;;;8.43;4.43;;;11.10;99.90;;;;;;4984920;28;20050;-67